Hayden, AL (35079)

2:01 AM CDT on October 31, 2014 (GMT -0500)
Hayden | Change Station
CLOSE
Current Station
Personal Weather Station
Location: Warrior, AL
Elevation: 850 ft
Nearby Weather Stations

Elev 850 ft 33.87 °N, 86.84 °W | Updated 7 seconds ago

Clear
Clear
51.3 °F
Feels Like 51.3 °F
N
0.0
Wind Variable Wind from North
Gusts 0.0 mph

Today
High -- | Low -- °F
--% Chance of Precip.
Yesterday
High -- | Low -- °F
Precip. -- in
7:05 AM 5:55 PM
First Quarter, 52% visible
Pressure 30.02 in
Visibility 10.0 miles
Clouds Mostly Cloudy 25000 ft
Dew Point 41 °F
Humidity 67%
Rainfall 0.00 in
Snow Depth Not available.
UV 0 out of 12
Pollen 2.00 out of 12
Air Quality Not available.
Flu Activity Not available.
METAR KBHM 310653Z 00000KT 10SM BKN250 08/06 A3002 RMK AO2 SLP164 T00830061

More Conditions Fewer Conditions

Pressure 30.02 in
Visibility 10.0 miles
Clouds Mostly Cloudy 25000 ft
Dew Point 41 °F
Humidity 67%
Rainfall 0.00 in
Snow Depth Not available.
UV 0 out of 12
Pollen 2.00 out of 12
Air Quality Not available.
Flu Activity Not available.
METAR KBHM 310653Z 00000KT 10SM BKN250 08/06 A3002 RMK AO2 SLP164 T00830061

More Conditions Fewer Conditions

10-Day Weather Forecast

Almanac

Astronomy

Oct. 31, 2014 Rise Set
Actual Time
Civil Twilight
Nautical Twilight
Astronomical Twilight
Moon
Length of Visible Light
Length of Day
Tomorrow will be .
, % of the Moon is Illuminated

Today's Extremes

State Highs State Lows

Community

WunderPhotos

Upload Photos

1,766,571 photos uploaded!

WunderBlogs® & News

Nearby

Air Quality

  Air Quality AQ Index Pollutant
Not available.

Snow Depth

Station Depth Elevation

Earthquake Activity

City Distance Mag. Time & Date
Minimum magnitude displayed is 2.5.

Coastal Water Temperatures

Place Temperature

Nearby Weather Stations